createdAt,value
2022-12-05T00:02:23.010Z,5.30
2022-12-05T00:04:49.798Z,5.40
2022-12-05T00:07:16.521Z,5.40
2022-12-05T00:09:43.455Z,5.40
2022-12-05T00:12:10.162Z,5.40
2022-12-05T00:14:36.896Z,5.40
2022-12-05T00:17:03.793Z,5.40
2022-12-05T00:19:30.528Z,5.80
2022-12-05T00:21:57.685Z,5.50
2022-12-05T00:24:24.472Z,5.50
2022-12-05T00:26:51.380Z,5.50
2022-12-05T00:29:18.477Z,5.50
2022-12-05T00:31:45.336Z,5.50
2022-12-05T00:34:12.202Z,5.50
2022-12-05T00:36:39.516Z,5.40
2022-12-05T00:39:11.131Z,5.50
2022-12-05T00:41:38.592Z,5.40
2022-12-05T00:44:06.061Z,5.40
2022-12-05T00:46:35.187Z,5.40
2022-12-05T00:49:04.630Z,5.40
2022-12-05T00:51:36.516Z,5.40
2022-12-05T00:54:11.916Z,5.40
2022-12-05T00:56:39.434Z,5.40
2022-12-05T00:59:06.675Z,5.50
2022-12-05T01:01:38.544Z,5.50
2022-12-05T01:04:21.668Z,5.50
2022-12-05T01:06:49.285Z,5.50
2022-12-05T01:09:20.474Z,5.50
2022-12-05T01:11:48.618Z,5.50
2022-12-05T01:14:18.821Z,5.50
2022-12-05T01:16:48.383Z,5.50
2022-12-05T01:19:28.091Z,5.70
2022-12-05T01:21:56.295Z,5.50
2022-12-05T01:24:27.911Z,5.50
2022-12-05T01:26:55.821Z,5.10
2022-12-05T01:30:02.170Z,5.60
2022-12-05T01:32:29.139Z,5.40
2022-12-05T01:34:56.487Z,5.70
2022-12-05T01:37:25.265Z,5.30
2022-12-05T01:39:52.296Z,5.30
2022-12-05T01:42:26.359Z,5.30
2022-12-05T01:45:06.949Z,5.30
2022-12-05T01:51:38.775Z,5.20
2022-12-05T01:54:09.259Z,5.80
2022-12-05T01:56:46.256Z,5.10
2022-12-05T01:59:15.399Z,5.10
2022-12-05T02:01:42.358Z,5.10
2022-12-05T02:04:20.148Z,5.00
2022-12-05T02:07:13.098Z,4.90
2022-12-05T02:09:48.500Z,5.00
2022-12-05T02:12:15.556Z,4.90
2022-12-05T02:15:12.969Z,4.90
2022-12-05T02:17:54.092Z,4.90
2022-12-05T04:37:21.959Z,4.30
2022-12-05T04:40:04.089Z,3.80
2022-12-05T04:42:42.175Z,4.50
2022-12-05T04:45:20.067Z,4.80
2022-12-05T04:48:01.662Z,4.30
2022-12-05T04:50:33.543Z,4.80
2022-12-05T04:53:05.601Z,4.90
2022-12-05T04:55:44.499Z,4.60
2022-12-05T04:58:15.633Z,4.40
2022-12-05T05:01:36.894Z,4.80
2022-12-05T05:11:21.350Z,4.90
2022-12-05T05:13:53.650Z,4.40
2022-12-05T05:16:25.854Z,4.70
2022-12-05T05:18:53.988Z,4.40
2022-12-05T06:02:41.072Z,4.40
2022-12-05T06:05:08.482Z,4.90
2022-12-05T06:07:35.716Z,4.40
2022-12-05T06:10:02.748Z,4.80
2022-12-05T06:12:29.615Z,4.70
2022-12-05T06:14:56.500Z,4.40
2022-12-05T06:17:23.357Z,4.40
2022-12-05T06:19:50.134Z,3.80
2022-12-05T06:22:16.974Z,4.40
2022-12-05T06:24:43.844Z,4.40
2022-12-05T06:27:10.697Z,4.50
2022-12-05T06:29:37.452Z,4.50
2022-12-05T06:32:04.922Z,4.50
2022-12-05T06:34:32.694Z,4.50
2022-12-05T06:37:00.345Z,4.50
2022-12-05T06:39:27.968Z,4.50
2022-12-05T06:41:54.868Z,4.50
2022-12-05T06:44:21.991Z,4.50
2022-12-05T06:46:49.217Z,5.00
2022-12-05T06:49:16.076Z,5.00
2022-12-05T06:51:42.928Z,4.10
2022-12-05T06:54:12.766Z,4.40
2022-12-05T06:56:40.267Z,4.50
2022-12-05T06:59:07.058Z,4.50
2022-12-05T07:01:42.126Z,4.70
2022-12-05T07:04:17.956Z,4.40
2022-12-05T07:06:50.155Z,4.40
2022-12-05T07:09:20.293Z,4.40
2022-12-05T07:11:50.118Z,4.40
2022-12-05T07:14:46.416Z,4.40
2022-12-05T07:17:05.266Z,4.40
2022-12-05T07:19:32.200Z,4.40
2022-12-05T07:21:59.042Z,4.40
2022-12-05T07:24:25.940Z,4.40
2022-12-05T07:26:53.831Z,4.40
2022-12-05T07:29:20.850Z,4.40
2022-12-05T07:31:47.964Z,4.40
2022-12-05T07:34:14.797Z,4.40
2022-12-05T07:36:41.830Z,4.40
2022-12-05T07:39:10.345Z,4.40
2022-12-05T07:41:37.588Z,4.40
2022-12-05T07:44:04.652Z,4.50
2022-12-05T07:46:31.606Z,4.50
2022-12-05T07:48:58.588Z,4.90
2022-12-05T07:51:25.647Z,4.50
2022-12-05T07:53:52.737Z,4.50
2022-12-05T07:56:20.668Z,5.00
2022-12-05T07:58:50.310Z,4.50
2022-12-05T08:01:21.358Z,4.50
2022-12-05T08:03:51.322Z,4.50
2022-12-05T08:06:21.967Z,4.50
2022-12-05T08:08:52.433Z,4.50
2022-12-05T08:11:30.322Z,4.60
2022-12-05T08:14:00.072Z,4.60
2022-12-05T08:16:30.684Z,4.60
2022-12-05T08:19:04.553Z,4.60
2022-12-05T08:21:32.396Z,4.60
2022-12-05T08:23:59.645Z,4.40
2022-12-05T08:26:32.839Z,5.30
2022-12-05T08:29:10.635Z,4.60
2022-12-05T08:31:49.220Z,4.60
2022-12-05T08:34:19.971Z,4.60
2022-12-05T08:36:47.045Z,4.30
2022-12-05T08:39:17.869Z,4.80
2022-12-05T08:41:51.849Z,4.60
2022-12-05T08:44:26.435Z,4.70
2022-12-05T08:47:00.203Z,5.30
2022-12-05T08:54:08.716Z,4.70
2022-12-05T08:56:41.353Z,5.40
2022-12-05T08:59:11.465Z,5.10
2022-12-05T09:01:43.203Z,4.40
2022-12-05T09:04:52.394Z,5.20
2022-12-05T09:08:13.352Z,4.80
2022-12-05T09:22:46.790Z,5.10
2022-12-05T09:25:52.751Z,5.10
2022-12-05T09:28:22.405Z,5.60
2022-12-05T09:30:58.278Z,4.80
2022-12-05T09:33:28.978Z,5.20
2022-12-05T09:35:56.049Z,5.00
2022-12-05T09:38:23.652Z,5.00
2022-12-05T09:41:13.646Z,5.00
2022-12-05T09:44:05.993Z,5.00
2022-12-05T09:47:10.784Z,5.20
2022-12-05T09:49:49.975Z,5.00
2022-12-05T09:52:29.480Z,5.00
2022-12-05T09:55:00.890Z,5.00
2022-12-05T09:57:45.276Z,5.20
2022-12-05T10:00:13.045Z,5.10
2022-12-05T10:02:59.480Z,4.90
2022-12-05T10:05:48.301Z,5.10
2022-12-05T10:08:43.126Z,5.10
2022-12-05T10:11:26.345Z,5.10
2022-12-05T10:14:06.600Z,5.30
2022-12-05T10:16:48.276Z,5.50
2022-12-05T10:19:24.393Z,5.20
2022-12-05T10:21:59.029Z,5.30
2022-12-05T10:24:40.776Z,5.30
2022-12-05T10:27:18.338Z,5.50
2022-12-05T10:30:06.658Z,5.30
2022-12-05T10:33:06.197Z,5.30
2022-12-05T10:35:39.558Z,5.40
2022-12-05T10:38:17.120Z,5.40
2022-12-05T10:40:51.762Z,5.40
2022-12-05T10:43:29.545Z,5.50
2022-12-05T10:45:57.474Z,5.50
2022-12-05T10:48:25.213Z,5.50
2022-12-05T10:50:57.746Z,5.80
2022-12-05T10:53:28.124Z,6.20
2022-12-05T10:56:28.907Z,5.60
2022-12-05T10:58:58.101Z,5.60
2022-12-05T11:01:26.956Z,5.70
2022-12-05T11:04:01.089Z,5.70
2022-12-05T11:06:32.259Z,5.70
2022-12-05T11:09:21.277Z,6.00
2022-12-05T11:12:18.482Z,5.70
2022-12-05T11:14:57.870Z,5.70
2022-12-05T11:17:37.347Z,5.70
2022-12-05T11:20:24.054Z,5.70
2022-12-05T11:22:56.875Z,5.80
2022-12-05T11:25:33.033Z,5.70
2022-12-05T11:28:31.898Z,5.80
2022-12-05T11:31:22.300Z,5.80
2022-12-05T11:34:17.199Z,5.80
2022-12-05T11:36:57.073Z,5.80
2022-12-05T11:39:25.317Z,5.80
2022-12-05T11:45:49.972Z,6.10
2022-12-05T11:48:45.399Z,5.80
2022-12-05T11:51:59.942Z,5.80
2022-12-05T11:55:05.418Z,5.80
2022-12-05T11:57:32.867Z,5.80
2022-12-05T12:04:24.981Z,5.80
2022-12-05T12:07:22.499Z,5.80
2022-12-05T12:14:16.294Z,5.90
2022-12-05T12:17:01.002Z,5.90
2022-12-05T12:20:19.679Z,5.90
2022-12-05T12:22:58.069Z,5.90
2022-12-05T12:26:15.928Z,5.90
2022-12-05T12:29:22.204Z,6.00
2022-12-05T12:32:30.056Z,6.00
2022-12-05T12:35:39.044Z,6.00
2022-12-05T12:38:49.667Z,6.00
2022-12-05T12:42:12.083Z,6.10
2022-12-05T12:46:03.445Z,6.20
2022-12-05T12:49:22.860Z,6.20
2022-12-05T12:52:09.603Z,6.20
2022-12-05T12:55:06.018Z,6.20
2022-12-05T12:58:09.536Z,6.60
2022-12-05T13:01:37.285Z,6.20
2022-12-05T13:08:56.850Z,6.20
2022-12-05T13:11:54.585Z,6.30
2022-12-05T13:18:16.751Z,6.20
2022-12-05T13:33:31.813Z,6.20
2022-12-05T13:37:14.608Z,6.10
2022-12-05T13:40:54.309Z,6.10
2022-12-05T13:43:53.411Z,6.00
2022-12-05T13:50:23.855Z,5.90
2022-12-05T13:57:22.109Z,6.10
2022-12-05T14:07:20.149Z,5.70
2022-12-05T14:10:05.257Z,5.70
2022-12-05T14:13:31.643Z,6.10
2022-12-05T14:16:57.189Z,5.60
2022-12-05T14:28:02.791Z,5.60
2022-12-05T14:31:41.239Z,5.50
2022-12-05T14:34:38.276Z,5.50
2022-12-05T14:37:34.512Z,5.40
2022-12-05T14:40:36.956Z,5.40
2022-12-05T14:44:10.405Z,5.40
2022-12-05T14:46:47.838Z,5.40
2022-12-05T14:52:56.123Z,5.40
2022-12-05T15:06:12.408Z,5.30
2022-12-05T15:16:10.157Z,5.20
2022-12-05T15:25:48.646Z,5.10
2022-12-05T16:05:05.550Z,4.70
2022-12-05T16:07:35.375Z,4.70
2022-12-05T16:22:48.979Z,4.60
2022-12-05T16:25:53.549Z,4.60
2022-12-05T16:34:53.084Z,4.60
2022-12-05T16:41:22.003Z,4.60
2022-12-05T16:44:16.179Z,4.60
2022-12-05T16:46:56.960Z,4.50
2022-12-05T16:49:46.065Z,4.50
2022-12-05T16:52:43.260Z,4.50
2022-12-05T16:55:38.767Z,4.50
2022-12-05T17:02:32.218Z,4.50
2022-12-05T17:05:22.684Z,4.50
2022-12-05T17:08:05.742Z,4.50
2022-12-05T17:10:47.540Z,4.50
2022-12-05T17:13:32.047Z,4.50
2022-12-05T17:16:06.609Z,4.50
2022-12-05T17:18:53.469Z,4.50
2022-12-05T17:21:39.134Z,4.50
2022-12-05T17:37:29.583Z,4.50
2022-12-05T17:40:14.537Z,4.50
2022-12-05T17:46:05.446Z,4.40
2022-12-05T17:48:57.308Z,4.40
2022-12-05T17:51:52.507Z,4.40
2022-12-05T17:54:36.238Z,4.40
2022-12-05T17:57:23.357Z,4.50
2022-12-05T17:59:58.997Z,4.50
2022-12-05T18:02:29.809Z,4.40
2022-12-05T18:05:02.785Z,4.50
2022-12-05T18:07:33.282Z,4.50
2022-12-05T18:10:07.070Z,4.50
2022-12-05T18:12:40.978Z,4.50
2022-12-05T18:15:15.230Z,4.50
2022-12-05T18:17:42.428Z,4.50
2022-12-05T18:20:13.284Z,4.50
2022-12-05T18:22:40.280Z,4.50
2022-12-05T18:25:08.288Z,4.50
2022-12-05T18:27:36.867Z,4.50
2022-12-05T18:30:08.195Z,4.50
2022-12-05T18:32:41.820Z,4.50
2022-12-05T18:35:20.381Z,4.50
2022-12-05T18:37:52.316Z,4.50
2022-12-05T18:43:10.129Z,4.50
2022-12-05T18:45:39.852Z,4.90
2022-12-05T18:51:15.983Z,4.50
2022-12-05T18:53:53.244Z,4.50
2022-12-05T18:56:29.667Z,4.50
2022-12-05T18:59:01.837Z,4.50
2022-12-05T19:01:30.704Z,4.50
2022-12-05T19:04:00.064Z,4.80
2022-12-05T19:06:31.428Z,4.80
2022-12-05T19:09:07.330Z,4.50
2022-12-05T19:11:34.734Z,4.50
2022-12-05T19:14:04.771Z,5.00
2022-12-05T19:16:34.597Z,5.20
2022-12-05T19:19:05.093Z,5.00
2022-12-05T19:21:34.386Z,4.50
2022-12-05T19:24:03.527Z,4.50
2022-12-05T19:26:30.481Z,4.50
2022-12-05T19:28:57.886Z,4.50
2022-12-05T19:31:27.925Z,4.50
2022-12-05T19:33:59.837Z,4.50
2022-12-05T19:36:31.681Z,4.50
2022-12-05T19:38:59.628Z,4.50
2022-12-05T19:41:29.535Z,4.50
2022-12-05T19:44:00.092Z,4.50
2022-12-05T19:46:30.706Z,5.10
2022-12-05T19:49:02.464Z,4.90
2022-12-05T19:51:31.797Z,4.60
2022-12-05T19:54:01.525Z,4.50
2022-12-05T19:56:31.251Z,4.80
2022-12-05T19:58:59.501Z,4.50
2022-12-05T20:01:32.516Z,4.50
2022-12-05T20:04:03.049Z,4.90
2022-12-05T20:06:43.580Z,5.00
2022-12-05T20:09:13.960Z,4.00
2022-12-05T20:11:43.878Z,5.00
2022-12-05T20:14:13.420Z,5.00
2022-12-05T20:16:41.279Z,5.00
2022-12-05T20:19:08.998Z,4.50
2022-12-05T20:21:39.410Z,4.50
2022-12-05T20:24:07.779Z,4.50
2022-12-05T20:26:38.471Z,4.50
2022-12-05T20:29:07.023Z,4.70
2022-12-05T20:31:42.470Z,4.50
2022-12-05T20:34:15.082Z,4.50
2022-12-05T20:36:43.074Z,4.50
2022-12-05T20:39:17.594Z,4.70
2022-12-05T20:41:45.316Z,4.50
2022-12-05T20:44:16.765Z,4.10
2022-12-05T20:46:44.044Z,4.60
2022-12-05T20:49:13.681Z,5.00
2022-12-05T20:51:43.633Z,4.60
2022-12-05T20:54:13.043Z,4.50
2022-12-05T20:56:41.039Z,4.50
2022-12-05T20:59:10.536Z,4.00
2022-12-05T21:01:38.526Z,4.50
2022-12-05T21:04:07.589Z,4.50
2022-12-05T21:06:37.769Z,5.20
2022-12-05T21:09:15.074Z,4.50
2022-12-05T21:11:43.030Z,4.50
2022-12-05T21:14:10.344Z,5.20
2022-12-05T21:16:37.795Z,4.90
2022-12-05T21:19:04.806Z,4.50
2022-12-05T21:21:34.119Z,4.50
2022-12-05T21:24:03.392Z,4.50
2022-12-05T21:26:33.535Z,4.50
2022-12-05T21:29:02.243Z,5.10
2022-12-05T21:31:36.194Z,5.10
2022-12-05T21:34:08.069Z,4.50
2022-12-05T21:36:36.648Z,4.50
2022-12-05T21:39:05.302Z,4.50
2022-12-05T21:41:32.449Z,4.50
2022-12-05T21:44:00.802Z,4.50
2022-12-05T21:46:28.328Z,4.50
2022-12-05T21:51:52.546Z,4.50
2022-12-05T21:54:28.574Z,4.50
2022-12-05T21:56:55.485Z,4.50
2022-12-05T21:59:26.855Z,4.50
2022-12-05T22:01:55.513Z,4.50
2022-12-05T22:04:22.518Z,5.20
2022-12-05T22:06:55.330Z,4.50
2022-12-05T22:09:28.329Z,4.50
2022-12-05T22:12:01.381Z,4.50
2022-12-05T22:14:48.049Z,4.50
2022-12-05T22:21:21.220Z,4.40
2022-12-05T22:23:49.732Z,4.50
2022-12-05T22:26:22.971Z,4.50
2022-12-05T22:28:52.034Z,4.50
2022-12-05T22:31:20.330Z,4.50
2022-12-05T22:33:47.792Z,4.50
2022-12-05T22:36:18.046Z,4.50
2022-12-05T22:38:47.529Z,4.50
2022-12-05T22:41:21.865Z,4.60
2022-12-05T22:43:52.911Z,4.70
2022-12-05T22:46:21.518Z,4.60
2022-12-05T22:48:49.645Z,4.60
2022-12-05T22:51:18.838Z,4.60
2022-12-05T22:53:46.158Z,4.60
2022-12-05T22:56:16.669Z,4.60
2022-12-05T22:58:45.184Z,4.60
2022-12-05T23:01:18.773Z,4.60
2022-12-05T23:03:54.752Z,4.60
2022-12-05T23:06:23.762Z,4.60
2022-12-05T23:08:51.658Z,4.60
2022-12-05T23:11:20.880Z,5.30
2022-12-05T23:13:49.027Z,4.60
2022-12-05T23:16:22.815Z,4.60
2022-12-05T23:18:53.495Z,4.80
2022-12-05T23:21:37.202Z,5.10
2022-12-05T23:24:12.217Z,4.60
2022-12-05T23:26:45.582Z,4.60
2022-12-05T23:29:14.131Z,5.30
2022-12-05T23:31:42.430Z,4.60
2022-12-05T23:34:10.767Z,4.60
2022-12-05T23:36:38.236Z,4.60
2022-12-05T23:39:11.854Z,4.60
2022-12-05T23:41:48.934Z,4.60
2022-12-05T23:44:23.955Z,4.60
2022-12-05T23:47:07.834Z,4.60
2022-12-05T23:52:32.488Z,4.60
2022-12-05T23:55:16.560Z,4.60
2022-12-05T23:57:47.905Z,4.60
